createdAt,value
2022-12-31T00:00:59.506Z,13.00
2022-12-31T00:02:00.320Z,13.00
2022-12-31T00:03:01.159Z,13.03
2022-12-31T00:04:01.880Z,13.05
2022-12-31T00:05:02.592Z,13.08
2022-12-31T00:06:03.311Z,13.11
2022-12-31T00:07:04.017Z,13.14
2022-12-31T00:08:04.730Z,13.12
2022-12-31T00:09:05.429Z,13.10
2022-12-31T00:10:06.149Z,13.10
2022-12-31T00:11:06.822Z,13.11
2022-12-31T00:12:07.550Z,13.11
2022-12-31T00:13:08.228Z,13.07
2022-12-31T00:14:08.932Z,13.04
2022-12-31T00:15:09.643Z,13.04
2022-12-31T00:16:12.436Z,13.00
2022-12-31T00:17:11.335Z,12.93
2022-12-31T00:18:12.003Z,12.87
2022-12-31T00:19:12.715Z,12.87
2022-12-31T00:20:13.461Z,12.83
2022-12-31T00:21:14.440Z,12.82
2022-12-31T00:22:15.146Z,12.78
2022-12-31T00:23:15.850Z,12.82
2022-12-31T00:24:16.548Z,12.87
2022-12-31T00:25:17.282Z,12.87
2022-12-31T00:26:17.920Z,12.87
2022-12-31T00:27:18.625Z,12.87
2022-12-31T00:28:19.324Z,12.85
2022-12-31T00:29:20.055Z,12.79
2022-12-31T00:30:20.734Z,12.79
2022-12-31T00:31:21.516Z,12.82
2022-12-31T00:32:22.174Z,12.85
2022-12-31T00:33:22.883Z,12.83
2022-12-31T00:34:23.588Z,12.83
2022-12-31T00:35:24.288Z,12.78
2022-12-31T00:36:25.020Z,12.74
2022-12-31T00:37:25.725Z,12.71
2022-12-31T00:38:26.429Z,12.65
2022-12-31T00:39:27.152Z,12.65
2022-12-31T00:40:27.854Z,12.62
2022-12-31T00:41:28.520Z,12.60
2022-12-31T00:42:29.226Z,12.59
2022-12-31T00:43:29.936Z,12.57
2022-12-31T00:44:30.631Z,12.59
2022-12-31T00:45:31.335Z,12.56
2022-12-31T00:46:32.127Z,12.56
2022-12-31T00:47:32.775Z,12.57
2022-12-31T00:48:33.485Z,12.57
2022-12-31T00:49:34.184Z,12.54
2022-12-31T00:50:34.888Z,12.56
2022-12-31T00:51:35.614Z,12.57
2022-12-31T00:52:36.308Z,12.56
2022-12-31T00:53:37.017Z,12.57
2022-12-31T00:54:37.719Z,12.56
2022-12-31T00:55:38.443Z,12.57
2022-12-31T00:56:39.147Z,12.56
2022-12-31T00:57:39.848Z,12.54
2022-12-31T00:58:40.551Z,12.53
2022-12-31T00:59:41.285Z,12.54
2022-12-31T01:00:41.968Z,12.53
2022-12-31T01:01:42.863Z,12.52
2022-12-31T01:02:43.850Z,12.53
2022-12-31T01:03:44.163Z,12.52
2022-12-31T01:04:44.854Z,12.50
2022-12-31T01:05:45.563Z,12.50
2022-12-31T01:06:46.296Z,12.49
2022-12-31T01:07:47.001Z,12.50
2022-12-31T01:08:47.703Z,12.50
2022-12-31T01:09:48.413Z,12.49
2022-12-31T01:10:49.141Z,12.50
2022-12-31T01:11:49.778Z,12.49
2022-12-31T01:12:50.497Z,12.49
2022-12-31T01:13:51.187Z,12.49
2022-12-31T01:14:51.898Z,12.50
2022-12-31T01:15:52.619Z,12.50
2022-12-31T01:16:53.503Z,12.50
2022-12-31T01:17:54.163Z,12.49
2022-12-31T01:18:54.863Z,12.49
2022-12-31T01:19:55.566Z,12.50
2022-12-31T01:20:56.290Z,12.47
2022-12-31T01:21:57.039Z,12.50
2022-12-31T01:22:57.691Z,12.50
2022-12-31T01:23:58.396Z,12.52
2022-12-31T01:24:59.098Z,12.52
2022-12-31T01:25:59.825Z,12.52
2022-12-31T01:27:00.542Z,12.54
2022-12-31T01:28:01.211Z,12.53
2022-12-31T01:29:01.904Z,12.59
2022-12-31T01:30:02.613Z,12.64
2022-12-31T01:31:03.363Z,12.68
2022-12-31T01:32:04.054Z,12.71
2022-12-31T01:33:04.731Z,12.72
2022-12-31T01:34:05.438Z,12.68
2022-12-31T01:35:06.143Z,12.72
2022-12-31T01:36:06.851Z,12.74
2022-12-31T01:37:07.595Z,12.74
2022-12-31T01:38:08.289Z,12.74
2022-12-31T01:39:09.029Z,12.77
2022-12-31T01:40:09.708Z,12.75
2022-12-31T01:41:10.440Z,12.79
2022-12-31T01:42:11.451Z,12.79
2022-12-31T01:43:11.653Z,12.86
2022-12-31T01:44:12.411Z,12.90
2022-12-31T01:45:13.064Z,12.89
2022-12-31T01:46:13.843Z,12.90
2022-12-31T01:47:14.539Z,12.89
2022-12-31T01:48:15.225Z,12.96
2022-12-31T01:49:15.940Z,12.97
2022-12-31T01:50:16.645Z,12.96
2022-12-31T01:51:17.357Z,12.97
2022-12-31T01:52:18.474Z,12.97
2022-12-31T01:53:18.656Z,12.97
2022-12-31T01:54:19.374Z,12.95
2022-12-31T01:55:20.068Z,12.95
2022-12-31T01:56:20.794Z,12.96
2022-12-31T01:57:21.953Z,12.97
2022-12-31T01:58:22.155Z,13.01
2022-12-31T01:59:22.894Z,13.03
2022-12-31T02:00:23.586Z,13.04
2022-12-31T02:01:24.466Z,13.03
2022-12-31T02:02:25.374Z,13.03
2022-12-31T02:03:26.168Z,13.04
2022-12-31T02:04:26.852Z,13.04
2022-12-31T02:05:27.554Z,13.03
2022-12-31T02:06:28.255Z,13.08
2022-12-31T02:07:28.983Z,13.03
2022-12-31T02:08:29.690Z,13.03
2022-12-31T02:09:30.403Z,13.05
2022-12-31T02:10:31.098Z,13.04
2022-12-31T02:11:31.825Z,13.05
2022-12-31T02:12:32.488Z,13.08
2022-12-31T02:13:33.194Z,13.07
2022-12-31T02:14:33.899Z,13.08
2022-12-31T02:15:34.737Z,13.11
2022-12-31T02:16:35.411Z,13.08
2022-12-31T02:17:36.164Z,13.10
2022-12-31T02:18:36.844Z,13.12
2022-12-31T02:19:37.553Z,13.12
2022-12-31T02:20:38.259Z,13.15
2022-12-31T02:21:38.967Z,13.14
2022-12-31T02:22:39.693Z,13.17
2022-12-31T02:23:40.633Z,13.22
2022-12-31T02:24:41.342Z,13.22
2022-12-31T02:25:42.051Z,13.22
2022-12-31T02:26:42.775Z,13.22
2022-12-31T02:27:43.971Z,13.28
2022-12-31T02:28:44.174Z,13.29
2022-12-31T02:29:44.896Z,13.30
2022-12-31T02:30:45.596Z,13.30
2022-12-31T02:31:46.361Z,13.32
2022-12-31T02:32:47.478Z,13.32
2022-12-31T02:33:47.671Z,13.41
2022-12-31T02:34:48.366Z,13.44
2022-12-31T02:35:49.074Z,13.44
2022-12-31T02:36:49.777Z,13.44
2022-12-31T02:37:50.978Z,13.39
2022-12-31T02:38:51.191Z,13.41
2022-12-31T02:39:51.895Z,13.48
2022-12-31T02:40:52.597Z,13.49
2022-12-31T02:41:53.339Z,13.55
2022-12-31T02:42:55.791Z,13.54
2022-12-31T02:43:54.544Z,13.62
2022-12-31T02:44:55.247Z,13.64
2022-12-31T02:45:55.949Z,13.66
2022-12-31T02:46:56.653Z,13.64
2022-12-31T02:47:57.385Z,13.63
2022-12-31T02:48:58.076Z,13.63
2022-12-31T02:49:58.778Z,13.66
2022-12-31T02:50:59.480Z,13.67
2022-12-31T02:52:00.181Z,13.69
2022-12-31T02:53:00.897Z,13.67
2022-12-31T02:54:01.608Z,13.63
2022-12-31T02:55:02.334Z,13.60
2022-12-31T02:56:03.021Z,13.67
2022-12-31T02:57:03.743Z,13.66
2022-12-31T02:58:04.433Z,13.66
2022-12-31T02:59:05.140Z,13.64
2022-12-31T03:00:05.850Z,13.63
2022-12-31T03:01:06.667Z,13.63
2022-12-31T03:02:07.464Z,13.67
2022-12-31T03:03:08.231Z,13.69
2022-12-31T03:04:08.905Z,13.63
2022-12-31T03:05:09.621Z,13.67
2022-12-31T03:06:10.316Z,13.66
2022-12-31T03:07:11.021Z,13.63
2022-12-31T03:08:11.755Z,13.63
2022-12-31T03:09:12.461Z,13.64
2022-12-31T03:10:13.165Z,13.66
2022-12-31T03:11:13.873Z,13.67
2022-12-31T03:12:14.596Z,13.63
2022-12-31T03:13:15.244Z,13.60
2022-12-31T03:14:15.964Z,13.60
2022-12-31T03:15:16.658Z,13.63
2022-12-31T03:16:17.404Z,13.62
2022-12-31T03:17:18.066Z,13.55
2022-12-31T03:18:18.810Z,13.60
2022-12-31T03:19:19.499Z,13.62
2022-12-31T03:20:20.241Z,13.60
2022-12-31T03:21:20.941Z,13.62
2022-12-31T03:22:21.649Z,13.57
2022-12-31T03:23:22.371Z,13.62
2022-12-31T03:24:23.070Z,13.63
2022-12-31T03:25:23.775Z,13.60
2022-12-31T03:26:24.482Z,13.59
2022-12-31T03:27:25.211Z,13.60
2022-12-31T03:28:25.899Z,13.62
2022-12-31T03:29:26.612Z,13.60
2022-12-31T03:30:27.313Z,13.59
2022-12-31T03:31:28.056Z,13.62
2022-12-31T03:32:28.721Z,13.60
2022-12-31T03:33:29.461Z,13.62
2022-12-31T03:34:30.142Z,13.60
2022-12-31T03:35:30.861Z,13.60
2022-12-31T03:36:31.550Z,13.60
2022-12-31T03:37:32.258Z,13.57
2022-12-31T03:38:32.993Z,13.55
2022-12-31T03:39:33.695Z,13.59
2022-12-31T03:40:34.416Z,13.60
2022-12-31T03:41:35.105Z,13.62
2022-12-31T03:42:35.829Z,13.60
2022-12-31T03:43:36.500Z,13.59
2022-12-31T03:44:37.203Z,13.59
2022-12-31T03:45:37.968Z,13.60
2022-12-31T03:46:38.659Z,13.66
2022-12-31T03:47:39.367Z,13.62
2022-12-31T03:48:40.100Z,13.62
2022-12-31T03:49:40.783Z,13.64
2022-12-31T03:50:41.511Z,13.66
2022-12-31T03:51:42.197Z,13.63
2022-12-31T03:52:42.896Z,13.63
2022-12-31T03:53:43.615Z,13.71
2022-12-31T03:54:44.317Z,13.71
2022-12-31T03:55:45.034Z,13.79
2022-12-31T03:56:47.946Z,13.77
2022-12-31T03:57:46.634Z,13.75
2022-12-31T03:58:47.314Z,13.77
2022-12-31T03:59:48.012Z,13.75
2022-12-31T04:00:48.785Z,13.71
2022-12-31T04:01:49.569Z,13.71
2022-12-31T04:02:50.311Z,13.79
2022-12-31T04:03:51.043Z,13.81
2022-12-31T04:04:51.737Z,13.85
2022-12-31T04:05:52.445Z,13.84
2022-12-31T04:06:53.145Z,13.84
2022-12-31T04:07:53.847Z,13.87
2022-12-31T04:08:54.579Z,13.85
2022-12-31T04:09:55.289Z,13.91
2022-12-31T04:10:55.987Z,13.95
2022-12-31T04:11:56.690Z,13.99
2022-12-31T04:12:57.413Z,14.00
2022-12-31T04:13:58.065Z,13.99
2022-12-31T04:14:58.769Z,13.95
2022-12-31T04:15:59.515Z,13.96
2022-12-31T04:17:00.176Z,14.00
2022-12-31T04:18:00.888Z,14.04
2022-12-31T04:19:01.639Z,14.04
2022-12-31T04:20:02.308Z,14.04
2022-12-31T04:21:03.020Z,14.07
2022-12-31T04:22:03.719Z,14.07
2022-12-31T04:23:04.432Z,14.12
2022-12-31T04:24:05.146Z,14.12
2022-12-31T04:25:05.851Z,14.17
2022-12-31T04:26:06.570Z,14.12
2022-12-31T04:27:08.124Z,14.10
2022-12-31T04:28:07.897Z,14.10
2022-12-31T04:29:08.572Z,14.14
2022-12-31T04:30:09.279Z,14.17
2022-12-31T04:31:09.991Z,14.14
2022-12-31T04:32:10.707Z,14.09
2022-12-31T04:33:12.063Z,14.09
2022-12-31T04:34:12.260Z,14.12
2022-12-31T04:35:12.931Z,14.21
2022-12-31T04:36:13.633Z,14.20
2022-12-31T04:37:14.341Z,14.22
2022-12-31T04:38:15.050Z,14.17
2022-12-31T04:39:15.996Z,14.20
2022-12-31T04:40:16.700Z,14.21
2022-12-31T04:41:17.407Z,14.17
2022-12-31T04:42:18.104Z,14.18
2022-12-31T04:43:18.841Z,14.10
2022-12-31T04:44:19.531Z,14.17
2022-12-31T04:45:20.221Z,14.10
2022-12-31T04:46:20.944Z,14.09
2022-12-31T04:47:23.790Z,14.12
2022-12-31T04:48:22.185Z,14.09
2022-12-31T04:49:22.923Z,14.07
2022-12-31T04:50:23.606Z,14.12
2022-12-31T04:51:24.319Z,14.12
2022-12-31T04:52:25.018Z,14.04
2022-12-31T04:53:25.722Z,14.02
2022-12-31T04:54:26.443Z,14.07
2022-12-31T04:55:27.139Z,14.17
2022-12-31T04:56:27.860Z,14.09
2022-12-31T04:57:28.551Z,14.10
2022-12-31T04:58:29.293Z,14.07
2022-12-31T04:59:29.999Z,14.09
2022-12-31T05:00:30.699Z,14.14
2022-12-31T05:01:31.565Z,14.09
2022-12-31T05:02:32.542Z,14.21
2022-12-31T05:03:32.801Z,14.18
2022-12-31T05:04:33.544Z,14.18
2022-12-31T05:05:34.221Z,14.27
2022-12-31T05:06:34.927Z,14.29
2022-12-31T05:07:35.635Z,14.42
2022-12-31T05:08:36.353Z,14.36
2022-12-31T05:09:37.080Z,14.43
2022-12-31T05:10:37.786Z,14.39
2022-12-31T05:11:38.488Z,14.36
2022-12-31T05:12:39.192Z,14.39
2022-12-31T05:13:39.915Z,14.33
2022-12-31T05:14:40.613Z,14.37
2022-12-31T05:15:41.318Z,14.32
2022-12-31T05:16:42.045Z,14.40
2022-12-31T05:17:42.741Z,14.50
2022-12-31T05:18:43.439Z,14.50
2022-12-31T05:19:44.191Z,14.43
2022-12-31T05:20:44.889Z,14.52
2022-12-31T05:21:45.584Z,14.46
2022-12-31T05:22:46.279Z,14.47
2022-12-31T05:23:46.987Z,14.61
2022-12-31T05:24:47.707Z,14.62
2022-12-31T05:25:48.416Z,14.77
2022-12-31T05:26:49.135Z,14.68
2022-12-31T05:27:49.825Z,14.68
2022-12-31T05:28:50.557Z,14.62
2022-12-31T05:29:51.481Z,14.72
2022-12-31T05:30:52.284Z,14.83
2022-12-31T05:31:52.925Z,14.91
2022-12-31T05:32:53.632Z,14.86
2022-12-31T05:33:54.331Z,14.86
2022-12-31T05:34:55.105Z,15.02
2022-12-31T05:35:55.758Z,15.14
2022-12-31T05:36:56.460Z,15.10
2022-12-31T05:37:57.155Z,15.28
2022-12-31T05:38:57.865Z,15.25
2022-12-31T05:39:58.610Z,15.14
2022-12-31T05:40:59.296Z,15.28
2022-12-31T05:42:00.001Z,15.39
2022-12-31T05:43:00.713Z,15.32
2022-12-31T05:44:01.425Z,15.29
2022-12-31T05:45:02.101Z,15.28
2022-12-31T05:46:02.901Z,15.34
2022-12-31T05:47:03.601Z,15.32
2022-12-31T05:48:04.308Z,15.27
2022-12-31T05:49:05.005Z,15.25
2022-12-31T05:50:05.750Z,15.23
2022-12-31T05:51:06.425Z,15.31
2022-12-31T05:52:07.142Z,15.39
2022-12-31T05:53:07.828Z,15.46
2022-12-31T05:54:08.539Z,15.44
2022-12-31T05:55:09.253Z,15.44
2022-12-31T05:56:09.963Z,15.56
2022-12-31T05:57:10.660Z,15.51
2022-12-31T05:58:11.373Z,15.46
2022-12-31T05:59:12.098Z,15.60
2022-12-31T06:00:12.769Z,15.64
2022-12-31T06:01:13.485Z,15.76
2022-12-31T06:02:14.203Z,15.76
2022-12-31T06:03:15.046Z,15.82
2022-12-31T06:04:15.769Z,15.84
2022-12-31T06:05:20.993Z,15.93
2022-12-31T06:06:18.084Z,15.97
2022-12-31T06:07:17.794Z,16.00
2022-12-31T06:08:18.504Z,16.09
2022-12-31T06:09:19.219Z,16.15
2022-12-31T06:10:19.953Z,16.14
2022-12-31T06:11:20.666Z,16.12
2022-12-31T06:12:21.364Z,16.04
2022-12-31T06:13:22.070Z,16.12
2022-12-31T06:14:22.810Z,16.07
2022-12-31T06:15:23.469Z,16.04
2022-12-31T06:16:24.170Z,16.01
2022-12-31T06:17:24.879Z,16.04
2022-12-31T06:18:25.584Z,16.11
2022-12-31T06:19:26.550Z,16.11
2022-12-31T06:20:27.294Z,16.05
2022-12-31T06:21:27.987Z,16.17
2022-12-31T06:22:28.683Z,16.09
2022-12-31T06:23:29.390Z,16.15
2022-12-31T06:24:30.096Z,16.25
2022-12-31T06:25:30.828Z,16.20
2022-12-31T06:26:31.525Z,16.27
2022-12-31T06:27:32.217Z,16.35
2022-12-31T06:28:32.931Z,16.28
2022-12-31T06:29:33.647Z,16.20
2022-12-31T06:30:34.310Z,16.09
2022-12-31T06:31:35.099Z,16.00
2022-12-31T06:32:35.758Z,16.17
2022-12-31T06:33:36.456Z,16.17
2022-12-31T06:34:37.163Z,16.14
2022-12-31T06:35:37.899Z,16.11
2022-12-31T06:36:38.582Z,16.11
2022-12-31T06:37:39.291Z,16.09
2022-12-31T06:38:39.988Z,16.12
2022-12-31T06:39:40.699Z,16.12
2022-12-31T06:40:41.438Z,16.07
2022-12-31T06:41:42.135Z,16.01
2022-12-31T06:42:42.836Z,15.96
2022-12-31T06:43:43.545Z,16.01
2022-12-31T06:44:44.273Z,15.97
2022-12-31T06:45:44.995Z,16.05
2022-12-31T06:46:45.778Z,16.09
2022-12-31T06:47:46.422Z,16.14
2022-12-31T06:48:47.130Z,16.23
2022-12-31T06:49:47.839Z,16.15
2022-12-31T06:50:49.016Z,16.21
2022-12-31T06:51:49.247Z,16.17
2022-12-31T06:52:49.958Z,16.14
2022-12-31T06:53:50.673Z,16.20
2022-12-31T06:54:51.373Z,16.24
2022-12-31T06:55:52.092Z,16.25
2022-12-31T06:56:52.794Z,16.17
2022-12-31T06:57:53.526Z,16.23
2022-12-31T06:58:54.205Z,16.30
2022-12-31T06:59:54.928Z,16.35
2022-12-31T07:00:55.658Z,16.38
2022-12-31T07:01:56.525Z,16.30
2022-12-31T07:02:57.281Z,16.38
2022-12-31T07:03:57.949Z,16.28
2022-12-31T07:04:58.650Z,16.17
2022-12-31T07:05:59.387Z,16.09
2022-12-31T07:07:00.096Z,16.12
2022-12-31T07:08:00.780Z,16.17
2022-12-31T07:09:01.486Z,16.15
2022-12-31T07:10:02.190Z,16.14
2022-12-31T07:11:02.918Z,16.17
2022-12-31T07:12:03.640Z,16.17
2022-12-31T07:13:04.332Z,16.25
2022-12-31T07:14:05.036Z,16.27
2022-12-31T07:15:05.773Z,16.27
2022-12-31T07:16:06.465Z,16.20
2022-12-31T07:17:07.151Z,16.35
2022-12-31T07:18:07.854Z,16.34
2022-12-31T07:19:08.565Z,16.25
2022-12-31T07:20:09.278Z,16.35
2022-12-31T07:21:10.031Z,16.38
2022-12-31T07:22:10.712Z,16.33
2022-12-31T07:23:11.411Z,16.27
2022-12-31T07:24:12.116Z,16.24
2022-12-31T07:25:12.826Z,16.34
2022-12-31T07:26:14.008Z,16.39
2022-12-31T07:27:14.208Z,16.39
2022-12-31T07:28:14.918Z,16.45
2022-12-31T07:29:15.619Z,16.43
2022-12-31T07:30:16.349Z,16.50
2022-12-31T07:31:17.092Z,16.50
2022-12-31T07:32:17.770Z,16.60
2022-12-31T07:33:18.480Z,16.58
2022-12-31T07:34:19.194Z,16.58
2022-12-31T07:35:20.144Z,16.67
2022-12-31T07:36:20.899Z,16.67
2022-12-31T07:37:21.562Z,16.70
2022-12-31T07:38:22.280Z,16.68
2022-12-31T07:39:22.979Z,16.67
2022-12-31T07:40:23.682Z,16.60
2022-12-31T07:41:24.413Z,16.52
2022-12-31T07:42:25.119Z,16.50
2022-12-31T07:43:25.824Z,16.42
2022-12-31T07:44:26.528Z,16.46
2022-12-31T07:45:27.257Z,16.48
2022-12-31T07:46:27.975Z,16.66
2022-12-31T07:47:28.642Z,16.61
2022-12-31T07:48:29.349Z,16.64
2022-12-31T07:49:30.047Z,16.68
2022-12-31T07:50:30.772Z,16.75
2022-12-31T07:51:31.481Z,16.79
2022-12-31T07:52:32.169Z,16.76
2022-12-31T07:53:32.873Z,16.73
2022-12-31T07:54:33.577Z,16.76
2022-12-31T07:55:34.281Z,16.73
2022-12-31T07:56:34.992Z,16.75
2022-12-31T07:57:35.700Z,16.76
2022-12-31T07:58:36.409Z,16.71
2022-12-31T07:59:37.112Z,16.75
2022-12-31T08:00:37.860Z,16.66
2022-12-31T08:01:38.786Z,16.66
2022-12-31T08:02:39.040Z,16.71
2022-12-31T08:03:39.710Z,16.67
2022-12-31T08:04:40.413Z,16.67
2022-12-31T08:05:41.122Z,16.88
2022-12-31T08:06:41.848Z,16.83
2022-12-31T08:07:42.535Z,16.78
2022-12-31T08:08:43.236Z,16.73
2022-12-31T08:09:43.939Z,16.78
2022-12-31T08:10:44.643Z,16.71
2022-12-31T08:11:45.523Z,16.67
2022-12-31T08:12:46.250Z,16.73
2022-12-31T08:13:46.957Z,16.76
2022-12-31T08:14:47.661Z,16.81
2022-12-31T08:15:48.383Z,16.85
2022-12-31T08:16:49.016Z,16.88
2022-12-31T08:17:49.729Z,16.82
2022-12-31T08:18:50.545Z,16.76
2022-12-31T08:19:51.247Z,16.78
2022-12-31T08:20:51.951Z,16.75
2022-12-31T08:21:52.701Z,16.83
2022-12-31T08:22:53.433Z,16.91
2022-12-31T08:23:54.145Z,16.93
2022-12-31T08:24:54.840Z,16.88
2022-12-31T08:25:55.548Z,16.88
2022-12-31T08:26:56.284Z,16.88
2022-12-31T08:27:56.956Z,16.86
2022-12-31T08:28:57.666Z,16.79
2022-12-31T08:29:58.367Z,16.82
2022-12-31T08:30:59.114Z,16.86
2022-12-31T08:31:59.813Z,16.93
2022-12-31T08:33:00.479Z,16.91
2022-12-31T08:34:05.787Z,16.98
2022-12-31T08:35:02.778Z,17.03
2022-12-31T08:36:02.498Z,17.08
2022-12-31T08:37:03.228Z,17.12
2022-12-31T08:38:03.932Z,17.15
2022-12-31T08:39:04.606Z,17.08
2022-12-31T08:40:05.315Z,17.11
2022-12-31T08:41:06.015Z,17.06
2022-12-31T08:42:06.754Z,17.12
2022-12-31T08:43:07.465Z,17.14
2022-12-31T08:44:08.166Z,17.16
2022-12-31T08:45:08.867Z,17.07
2022-12-31T08:46:09.642Z,17.04
2022-12-31T08:47:10.308Z,17.07
2022-12-31T08:48:11.013Z,17.08
2022-12-31T08:49:11.741Z,17.12
2022-12-31T08:50:12.423Z,17.15
2022-12-31T08:51:13.151Z,17.18
2022-12-31T08:52:14.036Z,17.16
2022-12-31T08:53:14.719Z,17.19
2022-12-31T08:54:15.432Z,17.19
2022-12-31T08:55:16.225Z,17.14
2022-12-31T08:56:16.928Z,17.08
2022-12-31T08:57:17.645Z,17.08
2022-12-31T08:58:18.346Z,17.18
2022-12-31T08:59:19.065Z,17.26
2022-12-31T09:00:19.768Z,17.25
2022-12-31T09:01:20.597Z,17.23
2022-12-31T09:02:21.286Z,17.22
2022-12-31T09:03:22.011Z,17.21
2022-12-31T09:04:22.747Z,17.18
2022-12-31T09:05:23.429Z,17.16
2022-12-31T09:06:24.125Z,17.12
2022-12-31T09:07:24.866Z,17.18
2022-12-31T09:08:25.552Z,17.25
2022-12-31T09:09:26.255Z,17.26
2022-12-31T09:10:26.966Z,17.25
2022-12-31T09:11:27.669Z,17.26
2022-12-31T09:12:28.381Z,17.22
2022-12-31T09:13:29.086Z,17.22
2022-12-31T09:14:29.796Z,17.23
2022-12-31T09:15:30.500Z,17.18
2022-12-31T09:16:31.296Z,17.16
2022-12-31T09:17:31.942Z,17.25
2022-12-31T09:18:33.478Z,17.30
2022-12-31T09:19:33.161Z,17.30
2022-12-31T09:20:42.851Z,17.33
2022-12-31T09:21:35.479Z,17.28
2022-12-31T09:22:35.223Z,17.31
2022-12-31T09:23:35.925Z,17.34
2022-12-31T09:24:36.612Z,17.40
2022-12-31T09:25:37.319Z,17.41
2022-12-31T09:26:38.023Z,17.41
2022-12-31T09:27:38.743Z,17.44
2022-12-31T09:28:39.459Z,17.46
2022-12-31T09:29:40.154Z,17.41
2022-12-31T09:30:40.868Z,17.44
2022-12-31T09:31:41.616Z,17.40
2022-12-31T09:32:42.542Z,17.46
2022-12-31T09:33:43.246Z,17.43
2022-12-31T09:34:43.965Z,17.44
2022-12-31T09:35:44.661Z,17.38
2022-12-31T09:36:45.374Z,17.36
2022-12-31T09:37:46.541Z,17.37
2022-12-31T09:38:46.731Z,17.38
2022-12-31T09:39:47.442Z,17.36
2022-12-31T09:40:48.158Z,17.41
2022-12-31T09:41:48.872Z,17.41
2022-12-31T09:42:50.042Z,17.38
2022-12-31T09:43:51.602Z,17.43
2022-12-31T09:44:51.038Z,17.46
2022-12-31T09:45:51.867Z,17.40
2022-12-31T09:46:52.546Z,17.38
2022-12-31T09:47:53.241Z,17.41
2022-12-31T09:48:53.937Z,17.37
2022-12-31T09:49:54.641Z,17.38
2022-12-31T09:50:55.351Z,17.37
2022-12-31T09:51:56.047Z,17.25
2022-12-31T09:52:56.778Z,17.30
2022-12-31T09:53:57.467Z,17.31
2022-12-31T09:54:58.226Z,17.33
2022-12-31T09:55:58.877Z,17.40
2022-12-31T09:56:59.589Z,17.41
2022-12-31T09:58:00.301Z,17.41
2022-12-31T09:59:01.010Z,17.46
2022-12-31T10:00:01.717Z,17.43
2022-12-31T10:01:02.573Z,17.40
2022-12-31T10:02:03.504Z,17.37
2022-12-31T10:03:03.844Z,17.34
2022-12-31T10:04:04.507Z,17.36
2022-12-31T10:05:05.214Z,17.38
2022-12-31T10:06:05.925Z,17.37
2022-12-31T10:07:06.621Z,17.34
2022-12-31T10:08:07.361Z,17.31
2022-12-31T10:09:08.042Z,17.33
2022-12-31T10:10:08.755Z,17.37
2022-12-31T10:11:09.457Z,17.36
2022-12-31T10:12:10.164Z,17.31
2022-12-31T10:13:10.905Z,17.25
2022-12-31T10:14:11.611Z,17.22
2022-12-31T10:15:12.308Z,17.23
2022-12-31T10:16:13.031Z,17.25
2022-12-31T10:17:13.784Z,17.25
2022-12-31T10:18:14.545Z,17.19
2022-12-31T10:19:15.237Z,17.22
2022-12-31T10:20:15.969Z,17.23
2022-12-31T10:21:16.651Z,17.18
2022-12-31T10:22:17.353Z,17.26
2022-12-31T10:23:18.158Z,17.33
2022-12-31T10:24:18.837Z,17.33
2022-12-31T10:25:19.545Z,17.41
2022-12-31T10:26:20.251Z,17.44
2022-12-31T10:27:20.965Z,17.48
2022-12-31T10:28:22.027Z,17.43
2022-12-31T10:29:22.238Z,17.40
2022-12-31T10:30:22.946Z,17.44
2022-12-31T10:31:23.695Z,17.43
2022-12-31T10:32:31.052Z,17.43
2022-12-31T10:33:26.011Z,17.46
2022-12-31T10:34:25.756Z,17.56
2022-12-31T10:35:26.464Z,17.63
2022-12-31T10:36:27.137Z,17.64
2022-12-31T10:37:27.852Z,17.66
2022-12-31T10:38:28.576Z,17.71
2022-12-31T10:39:29.264Z,17.70
2022-12-31T10:40:29.969Z,17.68
2022-12-31T10:41:30.674Z,17.72
2022-12-31T10:42:31.380Z,17.74
2022-12-31T10:43:32.115Z,17.79
2022-12-31T10:44:32.822Z,17.84
2022-12-31T10:45:33.542Z,17.86
2022-12-31T10:46:34.278Z,17.90
2022-12-31T10:47:34.970Z,17.87
2022-12-31T10:48:35.656Z,17.87
2022-12-31T10:49:36.363Z,17.90
2022-12-31T10:50:37.068Z,17.86
2022-12-31T10:51:37.777Z,17.87
2022-12-31T10:52:41.988Z,17.87
2022-12-31T10:53:39.475Z,17.87
2022-12-31T10:54:40.157Z,17.89
2022-12-31T10:55:40.869Z,17.87
2022-12-31T10:56:41.590Z,17.87
2022-12-31T10:57:42.296Z,17.82
2022-12-31T10:58:43.040Z,17.84
2022-12-31T10:59:43.756Z,17.84
2022-12-31T11:00:44.451Z,17.89
2022-12-31T11:01:45.290Z,17.82
2022-12-31T11:02:46.098Z,17.78
2022-12-31T11:03:47.067Z,17.79
2022-12-31T11:04:47.756Z,17.82
2022-12-31T11:05:48.453Z,17.86
2022-12-31T11:06:49.159Z,17.89
2022-12-31T11:07:49.868Z,17.95
2022-12-31T11:08:50.608Z,18.02
2022-12-31T11:09:51.286Z,18.02
2022-12-31T11:10:51.995Z,18.02
2022-12-31T11:11:52.700Z,18.00
2022-12-31T11:12:53.408Z,17.97
2022-12-31T11:13:54.139Z,17.99
2022-12-31T11:14:54.843Z,17.95
2022-12-31T11:15:55.633Z,17.95
2022-12-31T11:16:56.303Z,17.97
2022-12-31T11:17:57.031Z,18.08
2022-12-31T11:18:57.691Z,18.18
2022-12-31T11:19:58.382Z,18.39
2022-12-31T11:20:59.087Z,18.55
2022-12-31T11:21:59.791Z,18.54
2022-12-31T11:23:00.495Z,18.51
2022-12-31T11:24:01.246Z,18.47
2022-12-31T11:25:01.944Z,18.41
2022-12-31T11:26:02.630Z,18.45
2022-12-31T11:27:03.332Z,18.51
2022-12-31T11:28:04.041Z,18.57
2022-12-31T11:29:04.778Z,18.55
2022-12-31T11:30:05.487Z,18.57
2022-12-31T11:31:06.315Z,18.58
2022-12-31T11:32:07.012Z,18.44
2022-12-31T11:33:07.727Z,18.35
2022-12-31T11:34:08.402Z,18.27
2022-12-31T11:35:09.110Z,18.23
2022-12-31T11:36:09.815Z,18.20
2022-12-31T11:37:10.528Z,18.05
2022-12-31T11:38:11.251Z,18.08
2022-12-31T11:39:11.977Z,18.12
2022-12-31T11:40:12.658Z,18.11
2022-12-31T11:41:13.365Z,18.05
2022-12-31T11:42:14.066Z,18.05
2022-12-31T11:43:14.770Z,18.05
2022-12-31T11:44:15.505Z,18.03
2022-12-31T11:45:16.213Z,17.99
2022-12-31T11:46:16.995Z,17.96
2022-12-31T11:47:17.648Z,17.97
2022-12-31T11:48:33.677Z,17.97
2022-12-31T11:49:19.968Z,17.93
2022-12-31T11:50:19.673Z,17.95
2022-12-31T11:51:20.380Z,17.96
2022-12-31T11:52:21.862Z,17.95
2022-12-31T11:53:21.636Z,17.96
2022-12-31T11:54:22.403Z,17.92
2022-12-31T11:55:23.081Z,17.92
2022-12-31T11:56:23.767Z,17.93
2022-12-31T11:57:24.470Z,17.92
2022-12-31T11:58:25.176Z,17.90
2022-12-31T11:59:26.051Z,17.90
2022-12-31T12:00:26.785Z,17.89
2022-12-31T12:01:27.512Z,17.84
2022-12-31T12:02:28.206Z,17.82
2022-12-31T12:03:28.930Z,17.81
2022-12-31T12:04:29.627Z,17.77
2022-12-31T12:05:30.319Z,17.78
2022-12-31T12:06:31.017Z,17.82
2022-12-31T12:07:31.733Z,17.82
2022-12-31T12:08:32.436Z,17.79
2022-12-31T12:09:33.184Z,17.81
2022-12-31T12:10:36.821Z,17.81
2022-12-31T12:11:34.750Z,17.78
2022-12-31T12:12:35.460Z,17.78
2022-12-31T12:13:36.169Z,17.81
2022-12-31T12:14:36.893Z,17.81
2022-12-31T12:15:37.602Z,17.81
2022-12-31T12:16:38.394Z,17.79
2022-12-31T12:17:39.107Z,17.79
2022-12-31T12:18:39.827Z,17.77
2022-12-31T12:19:40.464Z,17.74
2022-12-31T12:20:41.171Z,17.77
2022-12-31T12:21:41.875Z,17.81
2022-12-31T12:22:46.475Z,17.77
2022-12-31T12:23:44.182Z,17.64
2022-12-31T12:24:43.930Z,17.44
2022-12-31T12:25:44.615Z,17.31
2022-12-31T12:26:45.341Z,17.23
2022-12-31T12:27:46.029Z,17.25
2022-12-31T12:28:46.741Z,17.25
2022-12-31T12:29:47.556Z,16.98
2022-12-31T12:30:48.266Z,17.03
2022-12-31T12:31:49.064Z,16.93
2022-12-31T12:32:49.744Z,16.81
2022-12-31T12:33:50.469Z,16.71
2022-12-31T12:34:51.149Z,16.50
2022-12-31T12:35:51.849Z,16.42
2022-12-31T12:36:52.557Z,16.52
2022-12-31T12:37:53.259Z,16.50
2022-12-31T12:38:53.961Z,16.43
2022-12-31T12:39:54.699Z,16.45
2022-12-31T12:40:55.379Z,16.57
2022-12-31T12:41:56.085Z,16.60
2022-12-31T12:42:56.790Z,16.53
2022-12-31T12:43:57.491Z,16.45
2022-12-31T12:44:58.224Z,16.34
2022-12-31T12:45:58.927Z,16.17
2022-12-31T12:46:59.718Z,15.94
2022-12-31T12:48:00.432Z,15.76
2022-12-31T12:49:01.145Z,15.68
2022-12-31T12:50:01.914Z,15.59
2022-12-31T12:51:02.569Z,15.51
2022-12-31T12:52:03.280Z,15.41
2022-12-31T12:53:03.979Z,15.31
2022-12-31T12:54:04.687Z,15.38
2022-12-31T12:55:05.441Z,15.35
2022-12-31T12:56:06.104Z,15.29
2022-12-31T12:57:06.812Z,15.20
2022-12-31T12:58:07.516Z,15.21
2022-12-31T12:59:08.223Z,15.20
2022-12-31T13:00:08.948Z,15.13
2022-12-31T13:01:09.766Z,15.07
2022-12-31T13:02:10.518Z,15.06